sensor_id;sensor_type;location;lat;lon;timestamp;temperature;humidity
13223;DHT22;6676;45.192;5.722;2022-12-10T00:00:26;5.10;99.90
13223;DHT22;6676;45.192;5.722;2022-12-10T00:03:18;5.10;99.90
13223;DHT22;6676;45.192;5.722;2022-12-10T00:06:11;5.00;99.90
13223;DHT22;6676;45.192;5.722;2022-12-10T00:09:06;5.00;99.90
13223;DHT22;6676;45.192;5.722;2022-12-10T00:11:58;5.00;99.90
13223;DHT22;6676;45.192;5.722;2022-12-10T00:14:49;5.00;99.90
13223;DHT22;6676;45.192;5.722;2022-12-10T00:17:41;5.00;99.90
13223;DHT22;6676;45.192;5.722;2022-12-10T00:23:14;4.90;99.90
13223;DHT22;6676;45.192;5.722;2022-12-10T00:26:08;4.90;99.90
13223;DHT22;6676;45.192;5.722;2022-12-10T00:29:02;4.90;99.90
13223;DHT22;6676;45.192;5.722;2022-12-10T00:31:57;4.90;99.90
13223;DHT22;6676;45.192;5.722;2022-12-10T00:37:36;4.80;99.90
13223;DHT22;6676;45.192;5.722;2022-12-10T00:40:28;4.80;99.90
13223;DHT22;6676;45.192;5.722;2022-12-10T00:43:20;4.70;99.90
13223;DHT22;6676;45.192;5.722;2022-12-10T00:46:12;4.70;99.90
13223;DHT22;6676;45.192;5.722;2022-12-10T00:49:04;4.60;99.90
13223;DHT22;6676;45.192;5.722;2022-12-10T00:51:56;4.60;99.90
13223;DHT22;6676;45.192;5.722;2022-12-10T00:57:27;4.60;99.90
13223;DHT22;6676;45.192;5.722;2022-12-10T01:00:19;4.50;99.90
13223;DHT22;6676;45.192;5.722;2022-12-10T01:03:10;4.50;99.90
13223;DHT22;6676;45.192;5.722;2022-12-10T01:06:10;4.50;99.90
13223;DHT22;6676;45.192;5.722;2022-12-10T01:09:05;4.50;99.90
13223;DHT22;6676;45.192;5.722;2022-12-10T01:11:59;4.50;99.90
13223;DHT22;6676;45.192;5.722;2022-12-10T01:14:51;4.50;99.90
13223;DHT22;6676;45.192;5.722;2022-12-10T01:20:22;4.50;99.90
13223;DHT22;6676;45.192;5.722;2022-12-10T01:23:14;4.50;99.90
13223;DHT22;6676;45.192;5.722;2022-12-10T01:26:08;4.60;99.90
13223;DHT22;6676;45.192;5.722;2022-12-10T01:29:01;4.50;99.90
13223;DHT22;6676;45.192;5.722;2022-12-10T01:31:54;4.50;99.90
13223;DHT22;6676;45.192;5.722;2022-12-10T01:34:46;4.50;99.90
13223;DHT22;6676;45.192;5.722;2022-12-10T01:37:37;4.60;99.90
13223;DHT22;6676;45.192;5.722;2022-12-10T01:40:29;4.50;99.90
13223;DHT22;6676;45.192;5.722;2022-12-10T01:43:21;4.50;99.90
13223;DHT22;6676;45.192;5.722;2022-12-10T01:46:13;4.50;99.90
13223;DHT22;6676;45.192;5.722;2022-12-10T01:49:06;4.50;99.90
13223;DHT22;6676;45.192;5.722;2022-12-10T01:52:00;4.50;99.90
13223;DHT22;6676;45.192;5.722;2022-12-10T01:57:32;4.40;99.90
13223;DHT22;6676;45.192;5.722;2022-12-10T02:00:23;4.40;99.90
13223;DHT22;6676;45.192;5.722;2022-12-10T02:03:21;4.40;99.90
13223;DHT22;6676;45.192;5.722;2022-12-10T02:06:21;4.30;99.90
13223;DHT22;6676;45.192;5.722;2022-12-10T02:09:18;4.30;99.90
13223;DHT22;6676;45.192;5.722;2022-12-10T02:14:55;4.30;99.90
13223;DHT22;6676;45.192;5.722;2022-12-10T02:20:31;4.30;99.90
13223;DHT22;6676;45.192;5.722;2022-12-10T02:23:26;4.30;99.90
13223;DHT22;6676;45.192;5.722;2022-12-10T02:26:23;4.40;99.90
13223;DHT22;6676;45.192;5.722;2022-12-10T02:29:17;4.30;99.90
13223;DHT22;6676;45.192;5.722;2022-12-10T02:32:14;4.30;99.90
13223;DHT22;6676;45.192;5.722;2022-12-10T02:35:09;4.20;99.90
13223;DHT22;6676;45.192;5.722;2022-12-10T02:38:04;4.20;99.90
13223;DHT22;6676;45.192;5.722;2022-12-10T02:40:59;4.20;99.90
13223;DHT22;6676;45.192;5.722;2022-12-10T02:43:55;4.20;99.90
13223;DHT22;6676;45.192;5.722;2022-12-10T02:46:50;4.20;99.90
13223;DHT22;6676;45.192;5.722;2022-12-10T02:49:42;4.20;99.90
13223;DHT22;6676;45.192;5.722;2022-12-10T02:55:16;4.10;99.90
13223;DHT22;6676;45.192;5.722;2022-12-10T02:58:13;4.10;99.90
13223;DHT22;6676;45.192;5.722;2022-12-10T03:01:10;4.10;99.90
13223;DHT22;6676;45.192;5.722;2022-12-10T03:04:05;4.10;99.90
13223;DHT22;6676;45.192;5.722;2022-12-10T03:09:43;4.10;99.90
13223;DHT22;6676;45.192;5.722;2022-12-10T03:12:36;3.90;99.90
13223;DHT22;6676;45.192;5.722;2022-12-10T03:15:32;3.90;99.90
13223;DHT22;6676;45.192;5.722;2022-12-10T03:18:24;3.80;99.90
13223;DHT22;6676;45.192;5.722;2022-12-10T03:21:17;3.80;99.90
13223;DHT22;6676;45.192;5.722;2022-12-10T03:26:51;3.80;99.90
13223;DHT22;6676;45.192;5.722;2022-12-10T03:29:45;3.80;99.90
13223;DHT22;6676;45.192;5.722;2022-12-10T03:32:37;3.90;99.90
13223;DHT22;6676;45.192;5.722;2022-12-10T03:38:12;3.80;99.90
13223;DHT22;6676;45.192;5.722;2022-12-10T03:41:03;3.80;99.90
13223;DHT22;6676;45.192;5.722;2022-12-10T03:43:57;3.90;99.90
13223;DHT22;6676;45.192;5.722;2022-12-10T03:46:49;3.90;99.90
13223;DHT22;6676;45.192;5.722;2022-12-10T03:52:21;3.90;99.90
13223;DHT22;6676;45.192;5.722;2022-12-10T03:55:12;3.90;99.90
13223;DHT22;6676;45.192;5.722;2022-12-10T03:58:04;3.80;99.90
13223;DHT22;6676;45.192;5.722;2022-12-10T04:00:56;3.80;99.90
13223;DHT22;6676;45.192;5.722;2022-12-10T04:03:47;3.70;99.90
13223;DHT22;6676;45.192;5.722;2022-12-10T04:06:40;3.70;99.90
13223;DHT22;6676;45.192;5.722;2022-12-10T04:09:33;3.70;99.90
13223;DHT22;6676;45.192;5.722;2022-12-10T04:15:05;3.60;99.90
13223;DHT22;6676;45.192;5.722;2022-12-10T04:18:14;3.50;99.90
13223;DHT22;6676;45.192;5.722;2022-12-10T04:21:06;3.40;99.90
13223;DHT22;6676;45.192;5.722;2022-12-10T04:26:55;3.30;99.90
13223;DHT22;6676;45.192;5.722;2022-12-10T04:29:47;3.30;99.90
13223;DHT22;6676;45.192;5.722;2022-12-10T04:35:22;3.20;99.90
13223;DHT22;6676;45.192;5.722;2022-12-10T04:40:56;3.10;99.90
13223;DHT22;6676;45.192;5.722;2022-12-10T04:43:48;3.10;99.90
13223;DHT22;6676;45.192;5.722;2022-12-10T04:46:40;3.10;99.90
13223;DHT22;6676;45.192;5.722;2022-12-10T04:49:33;3.10;99.90
13223;DHT22;6676;45.192;5.722;2022-12-10T04:52:26;3.10;99.90
13223;DHT22;6676;45.192;5.722;2022-12-10T04:57:57;3.20;99.90
13223;DHT22;6676;45.192;5.722;2022-12-10T05:00:49;3.30;99.90
13223;DHT22;6676;45.192;5.722;2022-12-10T05:03:40;3.30;99.90
13223;DHT22;6676;45.192;5.722;2022-12-10T05:06:33;3.30;99.90
13223;DHT22;6676;45.192;5.722;2022-12-10T05:09:25;3.20;99.90
13223;DHT22;6676;45.192;5.722;2022-12-10T05:12:16;3.20;99.90
13223;DHT22;6676;45.192;5.722;2022-12-10T05:15:10;3.10;99.90
13223;DHT22;6676;45.192;5.722;2022-12-10T05:20:41;3.10;99.90
13223;DHT22;6676;45.192;5.722;2022-12-10T05:23:35;3.20;99.90
13223;DHT22;6676;45.192;5.722;2022-12-10T05:26:27;3.20;99.90
13223;DHT22;6676;45.192;5.722;2022-12-10T05:31:58;3.20;99.90
13223;DHT22;6676;45.192;5.722;2022-12-10T05:34:49;3.20;99.90
13223;DHT22;6676;45.192;5.722;2022-12-10T05:40:24;3.10;99.90
13223;DHT22;6676;45.192;5.722;2022-12-10T05:43:16;3.00;99.90
13223;DHT22;6676;45.192;5.722;2022-12-10T05:46:10;2.90;99.90
13223;DHT22;6676;45.192;5.722;2022-12-10T05:49:04;2.80;99.90
13223;DHT22;6676;45.192;5.722;2022-12-10T05:51:56;2.80;99.90
13223;DHT22;6676;45.192;5.722;2022-12-10T05:54:47;2.80;99.90
13223;DHT22;6676;45.192;5.722;2022-12-10T06:00:18;2.90;99.90
13223;DHT22;6676;45.192;5.722;2022-12-10T06:05:52;3.00;99.90
13223;DHT22;6676;45.192;5.722;2022-12-10T06:08:43;2.90;99.90
13223;DHT22;6676;45.192;5.722;2022-12-10T06:11:37;2.80;99.90
13223;DHT22;6676;45.192;5.722;2022-12-10T06:14:28;2.80;99.90
13223;DHT22;6676;45.192;5.722;2022-12-10T06:17:20;2.80;99.90
13223;DHT22;6676;45.192;5.722;2022-12-10T06:20:12;2.70;99.90
13223;DHT22;6676;45.192;5.722;2022-12-10T06:23:04;2.70;99.90
13223;DHT22;6676;45.192;5.722;2022-12-10T06:25:55;2.90;99.90
13223;DHT22;6676;45.192;5.722;2022-12-10T06:28:47;2.90;99.90
13223;DHT22;6676;45.192;5.722;2022-12-10T06:31:39;2.90;99.90
13223;DHT22;6676;45.192;5.722;2022-12-10T06:34:31;2.90;99.90
13223;DHT22;6676;45.192;5.722;2022-12-10T06:40:02;2.90;99.90
13223;DHT22;6676;45.192;5.722;2022-12-10T06:42:54;3.10;99.90
13223;DHT22;6676;45.192;5.722;2022-12-10T06:48:27;2.80;99.90
13223;DHT22;6676;45.192;5.722;2022-12-10T06:51:19;2.80;99.90
13223;DHT22;6676;45.192;5.722;2022-12-10T06:54:12;2.70;99.90
13223;DHT22;6676;45.192;5.722;2022-12-10T06:57:03;2.60;99.90
13223;DHT22;6676;45.192;5.722;2022-12-10T06:59:55;2.70;99.90
13223;DHT22;6676;45.192;5.722;2022-12-10T07:05:29;2.70;99.90
13223;DHT22;6676;45.192;5.722;2022-12-10T07:08:20;2.80;99.90
13223;DHT22;6676;45.192;5.722;2022-12-10T07:11:16;2.80;99.90
13223;DHT22;6676;45.192;5.722;2022-12-10T07:14:07;2.80;99.90
13223;DHT22;6676;45.192;5.722;2022-12-10T07:17:00;2.70;99.90
13223;DHT22;6676;45.192;5.722;2022-12-10T07:19:53;2.70;99.90
13223;DHT22;6676;45.192;5.722;2022-12-10T07:25:24;2.60;99.90
13223;DHT22;6676;45.192;5.722;2022-12-10T07:28:15;2.60;99.90
13223;DHT22;6676;45.192;5.722;2022-12-10T07:31:11;2.50;99.90
13223;DHT22;6676;45.192;5.722;2022-12-10T07:34:03;2.50;99.90
13223;DHT22;6676;45.192;5.722;2022-12-10T07:36:54;2.60;99.90
13223;DHT22;6676;45.192;5.722;2022-12-10T07:39:46;2.60;99.90
13223;DHT22;6676;45.192;5.722;2022-12-10T07:42:38;2.50;99.90
13223;DHT22;6676;45.192;5.722;2022-12-10T07:45:29;2.50;99.90
13223;DHT22;6676;45.192;5.722;2022-12-10T07:51:03;2.50;99.90
13223;DHT22;6676;45.192;5.722;2022-12-10T07:53:56;2.50;99.90
13223;DHT22;6676;45.192;5.722;2022-12-10T07:56:47;2.60;99.90
13223;DHT22;6676;45.192;5.722;2022-12-10T07:59:39;2.50;99.90
13223;DHT22;6676;45.192;5.722;2022-12-10T08:05:11;2.70;99.90
13223;DHT22;6676;45.192;5.722;2022-12-10T08:08:03;2.60;99.90
13223;DHT22;6676;45.192;5.722;2022-12-10T08:10:59;2.60;99.90
13223;DHT22;6676;45.192;5.722;2022-12-10T08:13:51;2.70;99.90
13223;DHT22;6676;45.192;5.722;2022-12-10T08:16:44;2.70;99.90
13223;DHT22;6676;45.192;5.722;2022-12-10T08:22:20;2.70;99.90
13223;DHT22;6676;45.192;5.722;2022-12-10T08:25:12;2.80;99.90
13223;DHT22;6676;45.192;5.722;2022-12-10T08:28:04;2.80;99.90
13223;DHT22;6676;45.192;5.722;2022-12-10T08:30:56;2.70;99.90
13223;DHT22;6676;45.192;5.722;2022-12-10T08:33:48;2.60;99.90
13223;DHT22;6676;45.192;5.722;2022-12-10T08:36:39;2.50;99.90
13223;DHT22;6676;45.192;5.722;2022-12-10T08:39:31;2.40;99.90
13223;DHT22;6676;45.192;5.722;2022-12-10T08:45:03;2.40;99.90
13223;DHT22;6676;45.192;5.722;2022-12-10T08:47:55;2.30;99.90
13223;DHT22;6676;45.192;5.722;2022-12-10T08:50:47;2.30;99.90
13223;DHT22;6676;45.192;5.722;2022-12-10T08:56:22;2.30;99.90
13223;DHT22;6676;45.192;5.722;2022-12-10T08:59:13;2.30;99.90
13223;DHT22;6676;45.192;5.722;2022-12-10T09:02:09;2.30;99.90
13223;DHT22;6676;45.192;5.722;2022-12-10T09:05:02;2.30;99.90
13223;DHT22;6676;45.192;5.722;2022-12-10T09:10:37;2.30;99.90
13223;DHT22;6676;45.192;5.722;2022-12-10T09:13:29;2.30;99.90
13223;DHT22;6676;45.192;5.722;2022-12-10T09:16:26;2.20;99.90
13223;DHT22;6676;45.192;5.722;2022-12-10T09:21:55;2.20;99.90
13223;DHT22;6676;45.192;5.722;2022-12-10T09:24:47;2.20;99.90
13223;DHT22;6676;45.192;5.722;2022-12-10T09:30:28;2.20;99.90
13223;DHT22;6676;45.192;5.722;2022-12-10T09:33:22;2.30;99.90
13223;DHT22;6676;45.192;5.722;2022-12-10T09:36:14;2.30;99.90
13223;DHT22;6676;45.192;5.722;2022-12-10T09:39:06;2.20;99.90
13223;DHT22;6676;45.192;5.722;2022-12-10T09:42:11;2.20;99.90
13223;DHT22;6676;45.192;5.722;2022-12-10T09:45:10;2.20;99.90
13223;DHT22;6676;45.192;5.722;2022-12-10T09:48:07;2.20;99.90
13223;DHT22;6676;45.192;5.722;2022-12-10T09:51:03;2.20;99.90
13223;DHT22;6676;45.192;5.722;2022-12-10T09:53:57;2.20;99.90
13223;DHT22;6676;45.192;5.722;2022-12-10T09:56:51;2.20;99.90
13223;DHT22;6676;45.192;5.722;2022-12-10T09:59:46;2.30;99.90
13223;DHT22;6676;45.192;5.722;2022-12-10T10:05:24;2.30;99.90
13223;DHT22;6676;45.192;5.722;2022-12-10T10:08:23;2.30;99.90
13223;DHT22;6676;45.192;5.722;2022-12-10T10:11:18;2.30;99.90
13223;DHT22;6676;45.192;5.722;2022-12-10T10:14:13;2.30;99.90
13223;DHT22;6676;45.192;5.722;2022-12-10T10:17:08;2.40;99.90
13223;DHT22;6676;45.192;5.722;2022-12-10T10:20:01;2.30;99.90
13223;DHT22;6676;45.192;5.722;2022-12-10T10:25:31;2.30;99.90
13223;DHT22;6676;45.192;5.722;2022-12-10T10:28:24;2.30;99.90
13223;DHT22;6676;45.192;5.722;2022-12-10T10:31:23;2.30;99.90
13223;DHT22;6676;45.192;5.722;2022-12-10T10:34:17;2.20;99.90
13223;DHT22;6676;45.192;5.722;2022-12-10T10:40:03;2.30;99.90
13223;DHT22;6676;45.192;5.722;2022-12-10T10:43:01;2.30;99.90
13223;DHT22;6676;45.192;5.722;2022-12-10T10:45:59;2.30;99.90
13223;DHT22;6676;45.192;5.722;2022-12-10T10:48:52;2.40;99.90
13223;DHT22;6676;45.192;5.722;2022-12-10T10:51:45;2.40;99.90
13223;DHT22;6676;45.192;5.722;2022-12-10T10:54:39;2.50;99.90
13223;DHT22;6676;45.192;5.722;2022-12-10T10:57:34;2.50;99.90
13223;DHT22;6676;45.192;5.722;2022-12-10T11:00:26;2.40;99.90
13223;DHT22;6676;45.192;5.722;2022-12-10T11:03:19;2.40;99.90
13223;DHT22;6676;45.192;5.722;2022-12-10T11:08:37;2.40;99.90
13223;DHT22;6676;45.192;5.722;2022-12-10T11:14:21;2.50;99.90
13223;DHT22;6676;45.192;5.722;2022-12-10T11:17:18;2.50;99.90
13223;DHT22;6676;45.192;5.722;2022-12-10T11:23:09;2.50;99.90
13223;DHT22;6676;45.192;5.722;2022-12-10T11:26:09;2.50;99.90
13223;DHT22;6676;45.192;5.722;2022-12-10T11:29:16;2.50;99.90
13223;DHT22;6676;45.192;5.722;2022-12-10T11:35:01;2.50;99.90
13223;DHT22;6676;45.192;5.722;2022-12-10T11:37:56;2.50;99.90
13223;DHT22;6676;45.192;5.722;2022-12-10T11:40:52;2.50;99.90
13223;DHT22;6676;45.192;5.722;2022-12-10T11:44:04;2.50;99.90
13223;DHT22;6676;45.192;5.722;2022-12-10T11:47:11;2.50;99.90
13223;DHT22;6676;45.192;5.722;2022-12-10T11:50:11;2.40;99.90
13223;DHT22;6676;45.192;5.722;2022-12-10T11:56:28;2.40;99.90
13223;DHT22;6676;45.192;5.722;2022-12-10T12:11:08;2.40;99.90
13223;DHT22;6676;45.192;5.722;2022-12-10T12:14:06;2.40;99.90
13223;DHT22;6676;45.192;5.722;2022-12-10T12:17:03;2.40;99.90
13223;DHT22;6676;45.192;5.722;2022-12-10T12:39:38;2.40;99.90
13223;DHT22;6676;45.192;5.722;2022-12-10T12:45:15;2.30;99.90
13223;DHT22;6676;45.192;5.722;2022-12-10T12:50:57;2.30;99.90
13223;DHT22;6676;45.192;5.722;2022-12-10T12:56:34;2.20;99.90
13223;DHT22;6676;45.192;5.722;2022-12-10T12:59:32;2.30;99.90
13223;DHT22;6676;45.192;5.722;2022-12-10T13:02:41;2.20;99.90
13223;DHT22;6676;45.192;5.722;2022-12-10T13:05:36;2.20;99.90
13223;DHT22;6676;45.192;5.722;2022-12-10T13:08:32;2.20;99.90
13223;DHT22;6676;45.192;5.722;2022-12-10T13:14:28;2.10;99.90
13223;DHT22;6676;45.192;5.722;2022-12-10T13:20:29;2.10;99.90
13223;DHT22;6676;45.192;5.722;2022-12-10T13:23:33;2.10;99.90
13223;DHT22;6676;45.192;5.722;2022-12-10T13:26:28;2.10;99.90
13223;DHT22;6676;45.192;5.722;2022-12-10T13:29:42;2.10;99.90
13223;DHT22;6676;45.192;5.722;2022-12-10T13:35:30;2.00;99.90
13223;DHT22;6676;45.192;5.722;2022-12-10T13:38:22;2.00;99.90
13223;DHT22;6676;45.192;5.722;2022-12-10T13:41:14;2.00;99.90
13223;DHT22;6676;45.192;5.722;2022-12-10T13:56:01;2.00;99.90
13223;DHT22;6676;45.192;5.722;2022-12-10T13:59:05;2.00;99.90
13223;DHT22;6676;45.192;5.722;2022-12-10T14:02:02;2.00;99.90
13223;DHT22;6676;45.192;5.722;2022-12-10T14:11:10;2.00;99.90
13223;DHT22;6676;45.192;5.722;2022-12-10T14:14:02;2.00;99.90
13223;DHT22;6676;45.192;5.722;2022-12-10T14:16:56;2.00;99.90
13223;DHT22;6676;45.192;5.722;2022-12-10T14:22:39;1.90;99.90
13223;DHT22;6676;45.192;5.722;2022-12-10T14:25:52;1.90;99.90
13223;DHT22;6676;45.192;5.722;2022-12-10T14:29:00;1.90;99.90
13223;DHT22;6676;45.192;5.722;2022-12-10T14:31:51;1.90;99.90
13223;DHT22;6676;45.192;5.722;2022-12-10T14:34:47;1.90;99.90
13223;DHT22;6676;45.192;5.722;2022-12-10T14:37:42;1.90;99.90
13223;DHT22;6676;45.192;5.722;2022-12-10T14:40:38;1.80;99.90
13223;DHT22;6676;45.192;5.722;2022-12-10T14:43:32;1.80;99.90
13223;DHT22;6676;45.192;5.722;2022-12-10T14:46:27;1.80;99.90
13223;DHT22;6676;45.192;5.722;2022-12-10T14:49:21;1.90;99.90
13223;DHT22;6676;45.192;5.722;2022-12-10T14:55:13;1.70;99.90
13223;DHT22;6676;45.192;5.722;2022-12-10T15:00:50;1.80;99.90
13223;DHT22;6676;45.192;5.722;2022-12-10T15:03:44;1.70;99.90
13223;DHT22;6676;45.192;5.722;2022-12-10T15:06:37;1.70;99.90
13223;DHT22;6676;45.192;5.722;2022-12-10T15:12:25;1.60;99.90
13223;DHT22;6676;45.192;5.722;2022-12-10T15:21:04;1.60;99.90
13223;DHT22;6676;45.192;5.722;2022-12-10T15:24:13;1.60;99.90
13223;DHT22;6676;45.192;5.722;2022-12-10T15:27:16;1.60;99.90
13223;DHT22;6676;45.192;5.722;2022-12-10T15:30:24;1.60;99.90
13223;DHT22;6676;45.192;5.722;2022-12-10T15:33:27;1.60;99.90
13223;DHT22;6676;45.192;5.722;2022-12-10T15:36:27;1.60;99.90
13223;DHT22;6676;45.192;5.722;2022-12-10T15:39:23;1.60;99.90
13223;DHT22;6676;45.192;5.722;2022-12-10T15:45:16;1.60;99.90
13223;DHT22;6676;45.192;5.722;2022-12-10T15:50:51;1.70;99.90
13223;DHT22;6676;45.192;5.722;2022-12-10T15:53:45;1.60;99.90
13223;DHT22;6676;45.192;5.722;2022-12-10T15:56:37;1.60;99.90
13223;DHT22;6676;45.192;5.722;2022-12-10T15:59:29;1.70;99.90
13223;DHT22;6676;45.192;5.722;2022-12-10T16:05:11;1.60;99.90
13223;DHT22;6676;45.192;5.722;2022-12-10T16:10:42;1.60;99.90
13223;DHT22;6676;45.192;5.722;2022-12-10T16:13:36;1.60;99.90
13223;DHT22;6676;45.192;5.722;2022-12-10T16:16:29;1.60;99.90
13223;DHT22;6676;45.192;5.722;2022-12-10T16:19:21;1.60;99.90
13223;DHT22;6676;45.192;5.722;2022-12-10T16:22:14;1.60;99.90
13223;DHT22;6676;45.192;5.722;2022-12-10T16:25:08;1.60;99.90
13223;DHT22;6676;45.192;5.722;2022-12-10T16:30:47;1.60;99.90
13223;DHT22;6676;45.192;5.722;2022-12-10T16:33:39;1.70;99.90
13223;DHT22;6676;45.192;5.722;2022-12-10T16:36:31;1.60;99.90
13223;DHT22;6676;45.192;5.722;2022-12-10T16:39:22;1.50;99.90
13223;DHT22;6676;45.192;5.722;2022-12-10T16:42:16;1.60;99.90
13223;DHT22;6676;45.192;5.722;2022-12-10T16:45:16;1.60;99.90
13223;DHT22;6676;45.192;5.722;2022-12-10T16:50:51;1.60;99.90
13223;DHT22;6676;45.192;5.722;2022-12-10T16:56:25;1.60;99.90
13223;DHT22;6676;45.192;5.722;2022-12-10T16:59:17;1.60;99.90
13223;DHT22;6676;45.192;5.722;2022-12-10T17:02:13;1.60;99.90
13223;DHT22;6676;45.192;5.722;2022-12-10T17:05:10;1.60;99.90
13223;DHT22;6676;45.192;5.722;2022-12-10T17:08:04;1.60;99.90
13223;DHT22;6676;45.192;5.722;2022-12-10T17:10:57;1.60;99.90
13223;DHT22;6676;45.192;5.722;2022-12-10T17:14:13;1.60;99.90
13223;DHT22;6676;45.192;5.722;2022-12-10T17:17:09;1.50;99.90
13223;DHT22;6676;45.192;5.722;2022-12-10T17:20:09;1.50;99.90
13223;DHT22;6676;45.192;5.722;2022-12-10T17:23:02;1.50;99.90
13223;DHT22;6676;45.192;5.722;2022-12-10T17:25:54;1.50;99.90
13223;DHT22;6676;45.192;5.722;2022-12-10T17:28:48;1.50;99.90
13223;DHT22;6676;45.192;5.722;2022-12-10T17:31:40;1.50;99.90
13223;DHT22;6676;45.192;5.722;2022-12-10T17:37:12;1.50;99.90
13223;DHT22;6676;45.192;5.722;2022-12-10T17:40:10;1.50;99.90
13223;DHT22;6676;45.192;5.722;2022-12-10T17:43:05;1.50;99.90
13223;DHT22;6676;45.192;5.722;2022-12-10T17:45:58;1.50;99.90
13223;DHT22;6676;45.192;5.722;2022-12-10T17:51:38;1.40;99.90
13223;DHT22;6676;45.192;5.722;2022-12-10T17:54:30;1.40;99.90
13223;DHT22;6676;45.192;5.722;2022-12-10T18:00:02;1.40;99.90
13223;DHT22;6676;45.192;5.722;2022-12-10T18:02:58;1.40;99.90
13223;DHT22;6676;45.192;5.722;2022-12-10T18:05:50;1.40;99.90
13223;DHT22;6676;45.192;5.722;2022-12-10T18:08:43;1.40;99.90
13223;DHT22;6676;45.192;5.722;2022-12-10T18:11:36;1.40;99.90
13223;DHT22;6676;45.192;5.722;2022-12-10T18:14:29;1.40;99.90
13223;DHT22;6676;45.192;5.722;2022-12-10T18:20:02;1.30;99.90
13223;DHT22;6676;45.192;5.722;2022-12-10T18:25:35;1.40;99.90
13223;DHT22;6676;45.192;5.722;2022-12-10T18:28:52;1.50;99.90
13223;DHT22;6676;45.192;5.722;2022-12-10T18:31:45;1.40;99.90
13223;DHT22;6676;45.192;5.722;2022-12-10T18:34:36;1.40;99.90
13223;DHT22;6676;45.192;5.722;2022-12-10T18:40:12;1.40;99.90
13223;DHT22;6676;45.192;5.722;2022-12-10T18:45:46;1.50;99.90
13223;DHT22;6676;45.192;5.722;2022-12-10T18:48:38;1.50;99.90
13223;DHT22;6676;45.192;5.722;2022-12-10T18:51:30;1.50;99.90
13223;DHT22;6676;45.192;5.722;2022-12-10T18:54:22;1.50;99.90
13223;DHT22;6676;45.192;5.722;2022-12-10T18:57:14;1.50;99.90
13223;DHT22;6676;45.192;5.722;2022-12-10T19:00:13;1.50;99.90
13223;DHT22;6676;45.192;5.722;2022-12-10T19:05:49;1.50;99.90
13223;DHT22;6676;45.192;5.722;2022-12-10T19:08:41;1.50;99.90
13223;DHT22;6676;45.192;5.722;2022-12-10T19:14:14;1.50;99.90
13223;DHT22;6676;45.192;5.722;2022-12-10T19:17:07;1.40;99.90
13223;DHT22;6676;45.192;5.722;2022-12-10T19:19:59;1.40;99.90
13223;DHT22;6676;45.192;5.722;2022-12-10T19:25:38;1.60;99.90
13223;DHT22;6676;45.192;5.722;2022-12-10T19:28:30;1.60;99.90
13223;DHT22;6676;45.192;5.722;2022-12-10T19:31:21;1.50;99.90
13223;DHT22;6676;45.192;5.722;2022-12-10T19:34:14;1.50;99.90
13223;DHT22;6676;45.192;5.722;2022-12-10T19:37:09;1.40;99.90
13223;DHT22;6676;45.192;5.722;2022-12-10T19:40:02;1.50;99.90
13223;DHT22;6676;45.192;5.722;2022-12-10T19:42:54;1.50;99.90
13223;DHT22;6676;45.192;5.722;2022-12-10T19:45:46;1.40;99.90
13223;DHT22;6676;45.192;5.722;2022-12-10T19:48:38;1.40;99.90
13223;DHT22;6676;45.192;5.722;2022-12-10T19:54:12;1.40;99.90
13223;DHT22;6676;45.192;5.722;2022-12-10T19:57:04;1.40;99.90
13223;DHT22;6676;45.192;5.722;2022-12-10T19:59:56;1.50;99.90
13223;DHT22;6676;45.192;5.722;2022-12-10T20:02:48;1.50;99.90
13223;DHT22;6676;45.192;5.722;2022-12-10T20:05:40;1.50;99.90
13223;DHT22;6676;45.192;5.722;2022-12-10T20:08:32;1.50;99.90
13223;DHT22;6676;45.192;5.722;2022-12-10T20:11:26;1.50;99.90
13223;DHT22;6676;45.192;5.722;2022-12-10T20:14:24;1.40;99.90
13223;DHT22;6676;45.192;5.722;2022-12-10T20:17:16;1.40;99.90
13223;DHT22;6676;45.192;5.722;2022-12-10T20:20:16;1.50;99.90
13223;DHT22;6676;45.192;5.722;2022-12-10T20:23:16;1.60;99.90
13223;DHT22;6676;45.192;5.722;2022-12-10T20:28:54;1.60;99.90
13223;DHT22;6676;45.192;5.722;2022-12-10T20:31:54;1.50;99.90
13223;DHT22;6676;45.192;5.722;2022-12-10T20:34:47;1.60;99.90
13223;DHT22;6676;45.192;5.722;2022-12-10T20:37:52;1.60;99.90
13223;DHT22;6676;45.192;5.722;2022-12-10T20:40:43;1.50;99.90
13223;DHT22;6676;45.192;5.722;2022-12-10T20:46:21;1.70;99.90
13223;DHT22;6676;45.192;5.722;2022-12-10T20:49:14;1.70;99.90
13223;DHT22;6676;45.192;5.722;2022-12-10T20:52:07;1.60;99.90
13223;DHT22;6676;45.192;5.722;2022-12-10T20:54:59;1.50;99.90
13223;DHT22;6676;45.192;5.722;2022-12-10T20:57:50;1.50;99.90
13223;DHT22;6676;45.192;5.722;2022-12-10T21:00:44;1.50;99.90
13223;DHT22;6676;45.192;5.722;2022-12-10T21:06:17;1.40;99.90
13223;DHT22;6676;45.192;5.722;2022-12-10T21:09:12;1.40;99.90
13223;DHT22;6676;45.192;5.722;2022-12-10T21:12:04;1.50;99.90
13223;DHT22;6676;45.192;5.722;2022-12-10T21:14:56;1.50;99.90
13223;DHT22;6676;45.192;5.722;2022-12-10T21:17:50;1.50;99.90
13223;DHT22;6676;45.192;5.722;2022-12-10T21:23:23;1.50;99.90
13223;DHT22;6676;45.192;5.722;2022-12-10T21:26:15;1.50;99.90
13223;DHT22;6676;45.192;5.722;2022-12-10T21:31:47;1.50;99.90
13223;DHT22;6676;45.192;5.722;2022-12-10T21:34:39;1.50;99.90
13223;DHT22;6676;45.192;5.722;2022-12-10T21:40:11;1.50;99.90
13223;DHT22;6676;45.192;5.722;2022-12-10T21:43:08;1.50;99.90
13223;DHT22;6676;45.192;5.722;2022-12-10T21:48:49;1.40;99.90
13223;DHT22;6676;45.192;5.722;2022-12-10T21:54:22;1.40;99.90
13223;DHT22;6676;45.192;5.722;2022-12-10T21:57:14;1.40;99.90
13223;DHT22;6676;45.192;5.722;2022-12-10T22:00:08;1.40;99.90
13223;DHT22;6676;45.192;5.722;2022-12-10T22:03:02;1.40;99.90
13223;DHT22;6676;45.192;5.722;2022-12-10T22:05:54;1.40;99.90
13223;DHT22;6676;45.192;5.722;2022-12-10T22:08:45;1.40;99.90
13223;DHT22;6676;45.192;5.722;2022-12-10T22:11:38;1.40;99.90
13223;DHT22;6676;45.192;5.722;2022-12-10T22:14:29;1.40;99.90
13223;DHT22;6676;45.192;5.722;2022-12-10T22:17:21;1.40;99.90
13223;DHT22;6676;45.192;5.722;2022-12-10T22:25:38;1.40;99.90
13223;DHT22;6676;45.192;5.722;2022-12-10T22:28:28;1.40;99.90
13223;DHT22;6676;45.192;5.722;2022-12-10T22:31:20;1.40;99.90
13223;DHT22;6676;45.192;5.722;2022-12-10T22:34:13;1.40;99.90
13223;DHT22;6676;45.192;5.722;2022-12-10T22:37:04;1.40;99.90
13223;DHT22;6676;45.192;5.722;2022-12-10T22:42:37;1.40;99.90
13223;DHT22;6676;45.192;5.722;2022-12-10T22:45:29;1.40;99.90
13223;DHT22;6676;45.192;5.722;2022-12-10T22:48:21;1.40;99.90
13223;DHT22;6676;45.192;5.722;2022-12-10T22:51:12;1.40;99.90
13223;DHT22;6676;45.192;5.722;2022-12-10T22:54:04;1.40;99.90
13223;DHT22;6676;45.192;5.722;2022-12-10T22:56:56;1.40;99.90
13223;DHT22;6676;45.192;5.722;2022-12-10T23:02:27;1.40;99.90
13223;DHT22;6676;45.192;5.722;2022-12-10T23:08:27;1.40;99.90
13223;DHT22;6676;45.192;5.722;2022-12-10T23:11:20;1.30;99.90
13223;DHT22;6676;45.192;5.722;2022-12-10T23:14:12;1.20;99.90
13223;DHT22;6676;45.192;5.722;2022-12-10T23:17:03;1.20;99.90
13223;DHT22;6676;45.192;5.722;2022-12-10T23:19:55;1.20;99.90
13223;DHT22;6676;45.192;5.722;2022-12-10T23:25:28;1.10;99.90
13223;DHT22;6676;45.192;5.722;2022-12-10T23:30:59;1.10;99.90
13223;DHT22;6676;45.192;5.722;2022-12-10T23:36:32;1.00;99.90
13223;DHT22;6676;45.192;5.722;2022-12-10T23:39:23;1.10;99.90
13223;DHT22;6676;45.192;5.722;2022-12-10T23:42:15;1.00;99.90
13223;DHT22;6676;45.192;5.722;2022-12-10T23:45:09;1.00;99.90